Weather at Texel Airfield

Public forecast

Using degrees Celsius for public forecast. Weather courtesy of forecast.io.

Closest aviation weather report (METAR) to Texel Airfield

Closest report is De Kooy Airport, 11.7 nm (21.6 km) S. Retrieved 2021/01/20 22:25 UTC (57 seconds ago):

EHKD 202225Z AUTO 18020KT 9999 SCT051 OVC056 10/04 Q0985 BLU

Closest aviation forecast (TAF) to Texel Airfield

Closest forecast is De Kooy Airport, 11.7 nm (21.6 km) S. Retrieved 2021/01/20 18:57 UTC (3 hours ago):

TAF TAF EHKD 201704Z 2018/2106 19018G35KT 9999 SCT030 OVC100 BECMG 2100/2102 19025G42KT SCT015 BKN020 BECMG 2102/2104 23030G45KT TEMPO 2102/2106 24032G55KT 3000 RA SHRA SCT012 BKN018 SCT040CB